METAR AND TAF INFORMATION

METAR FOR MTPP
ADDS - METARS form results

(0653 UTC 24 July 2021)
Data provider http://aviationweather.gov/metar/data/
 
METAR text: MTPP 240559Z AUTO VRB02KT //// ////// 28/24 Q1014 A2996 NOSIG
Conditions at: MTPP (PORT-AU-PRINCE , HT) observed 0559 UTC 24 July 2021
Temperature: 28.0°C (82°F)
Dewpoint: 24.0°C (75°F) [RH = 79%]
Pressure (altimeter): 29.94 inches Hg (1014.0 mb)
Winds: variable direction winds at 2 MPH (2 knots; 1.0 m/s)
Visibility: missing
Ceiling: unknown
Clouds: missing
Weather: no significant weather observed at this time

 

AIRPORT MAP

 

RUNWAY INFORMATION

Runway 10 Runway length 9974 ft Runway width 141 ft
Runway elevation 79 ft Runway displaced threshold 0 ft Runway heading 87
Runway 28 Runway length 9974 ft Runway width 141 ft
Runway elevation 122 ft Runway displaced threshold 0 ft Runway heading 267

 

AIRPORT FREQUENCIES

Type APP Name APP Frequency 119.8 MHZ
Type TWR Name TWR Frequency 118.3 MHZ

 

AIRPORT NEAR NAVIGATION AIDS

Type NDB Name Port Au Prince Frequency 270 KHZ
Type VOR-DME Name Port Au Prince Frequency 115300 KHZ